sensor_id;sensor_type;location;lat;lon;timestamp;P1;durP1;ratioP1;P2;durP2;ratioP2
71867;SDS011;59738;48.324;14.230;2023-05-07T00:00:08;2.80;;;2.50;;
71867;SDS011;59738;48.324;14.230;2023-05-07T00:02:35;5.55;;;2.50;;
71867;SDS011;59738;48.324;14.230;2023-05-07T00:05:03;3.72;;;2.30;;
71867;SDS011;59738;48.324;14.230;2023-05-07T00:07:30;3.13;;;2.80;;
71867;SDS011;59738;48.324;14.230;2023-05-07T00:09:57;3.60;;;2.78;;
71867;SDS011;59738;48.324;14.230;2023-05-07T00:12:25;2.30;;;2.10;;
71867;SDS011;59738;48.324;14.230;2023-05-07T00:14:53;3.50;;;1.80;;
71867;SDS011;59738;48.324;14.230;2023-05-07T00:17:21;4.55;;;2.33;;
71867;SDS011;59738;48.324;14.230;2023-05-07T00:19:48;2.37;;;2.13;;
71867;SDS011;59738;48.324;14.230;2023-05-07T00:22:15;3.75;;;2.00;;
71867;SDS011;59738;48.324;14.230;2023-05-07T00:24:43;2.80;;;2.10;;
71867;SDS011;59738;48.324;14.230;2023-05-07T00:27:10;3.67;;;2.45;;
71867;SDS011;59738;48.324;14.230;2023-05-07T00:29:37;3.13;;;2.20;;
71867;SDS011;59738;48.324;14.230;2023-05-07T00:32:06;1.77;;;1.67;;
71867;SDS011;59738;48.324;14.230;2023-05-07T00:34:34;2.30;;;2.10;;
71867;SDS011;59738;48.324;14.230;2023-05-07T00:37:02;2.63;;;2.20;;
71867;SDS011;59738;48.324;14.230;2023-05-07T00:39:29;3.35;;;2.00;;
71867;SDS011;59738;48.324;14.230;2023-05-07T00:41:56;2.28;;;2.08;;
71867;SDS011;59738;48.324;14.230;2023-05-07T00:44:24;3.90;;;2.03;;
71867;SDS011;59738;48.324;14.230;2023-05-07T00:46:51;3.28;;;2.50;;
71867;SDS011;59738;48.324;14.230;2023-05-07T00:49:19;3.53;;;2.40;;
71867;SDS011;59738;48.324;14.230;2023-05-07T00:51:47;4.60;;;2.30;;
71867;SDS011;59738;48.324;14.230;2023-05-07T00:54:14;5.05;;;2.45;;
71867;SDS011;59738;48.324;14.230;2023-05-07T00:56:41;2.57;;;2.13;;
71867;SDS011;59738;48.324;14.230;2023-05-07T00:59:09;2.20;;;1.92;;
71867;SDS011;59738;48.324;14.230;2023-05-07T01:01:36;3.20;;;2.10;;
71867;SDS011;59738;48.324;14.230;2023-05-07T01:04:03;2.33;;;1.95;;
71867;SDS011;59738;48.324;14.230;2023-05-07T01:06:32;3.53;;;2.10;;
71867;SDS011;59738;48.324;14.230;2023-05-07T01:09:00;2.20;;;1.70;;
71867;SDS011;59738;48.324;14.230;2023-05-07T01:11:30;2.00;;;1.80;;
71867;SDS011;59738;48.324;14.230;2023-05-07T01:13:57;4.00;;;1.83;;
71867;SDS011;59738;48.324;14.230;2023-05-07T01:16:25;2.33;;;2.08;;
71867;SDS011;59738;48.324;14.230;2023-05-07T01:18:53;3.47;;;2.00;;
71867;SDS011;59738;48.324;14.230;2023-05-07T01:21:21;2.30;;;2.10;;
71867;SDS011;59738;48.324;14.230;2023-05-07T01:23:52;2.85;;;2.30;;
71867;SDS011;59738;48.324;14.230;2023-05-07T01:26:21;4.05;;;2.33;;
71867;SDS011;59738;48.324;14.230;2023-05-07T01:28:49;2.80;;;2.50;;
71867;SDS011;59738;48.324;14.230;2023-05-07T01:31:17;2.55;;;2.28;;
71867;SDS011;59738;48.324;14.230;2023-05-07T01:33:44;2.27;;;1.97;;
71867;SDS011;59738;48.324;14.230;2023-05-07T01:36:13;2.53;;;2.10;;
71867;SDS011;59738;48.324;14.230;2023-05-07T01:38:40;2.20;;;2.00;;
71867;SDS011;59738;48.324;14.230;2023-05-07T01:41:09;1.90;;;1.80;;
71867;SDS011;59738;48.324;14.230;2023-05-07T01:43:37;2.50;;;2.00;;
71867;SDS011;59738;48.324;14.230;2023-05-07T01:46:04;5.87;;;2.20;;
71867;SDS011;59738;48.324;14.230;2023-05-07T01:48:32;3.80;;;2.35;;
71867;SDS011;59738;48.324;14.230;2023-05-07T01:50:59;2.13;;;1.92;;
71867;SDS011;59738;48.324;14.230;2023-05-07T01:53:26;2.15;;;1.95;;
71867;SDS011;59738;48.324;14.230;2023-05-07T01:55:54;3.97;;;2.10;;
71867;SDS011;59738;48.324;14.230;2023-05-07T01:58:23;3.80;;;2.20;;
71867;SDS011;59738;48.324;14.230;2023-05-07T02:00:50;2.53;;;1.90;;
71867;SDS011;59738;48.324;14.230;2023-05-07T02:03:18;2.70;;;2.20;;
71867;SDS011;59738;48.324;14.230;2023-05-07T02:05:54;2.45;;;2.00;;
71867;SDS011;59738;48.324;14.230;2023-05-07T02:08:28;2.88;;;2.17;;
71867;SDS011;59738;48.324;14.230;2023-05-07T02:10:56;2.30;;;2.10;;
71867;SDS011;59738;48.324;14.230;2023-05-07T02:13:26;2.17;;;1.95;;
71867;SDS011;59738;48.324;14.230;2023-05-07T02:15:54;2.20;;;2.00;;
71867;SDS011;59738;48.324;14.230;2023-05-07T02:18:22;3.53;;;2.00;;
71867;SDS011;59738;48.324;14.230;2023-05-07T02:20:50;3.22;;;2.10;;
71867;SDS011;59738;48.324;14.230;2023-05-07T02:23:17;2.57;;;2.37;;
71867;SDS011;59738;48.324;14.230;2023-05-07T02:25:44;2.75;;;2.38;;
71867;SDS011;59738;48.324;14.230;2023-05-07T02:28:12;2.83;;;2.00;;
71867;SDS011;59738;48.324;14.230;2023-05-07T02:30:50;2.17;;;1.98;;
71867;SDS011;59738;48.324;14.230;2023-05-07T02:33:17;2.63;;;2.42;;
71867;SDS011;59738;48.324;14.230;2023-05-07T02:35:45;2.37;;;2.17;;
71867;SDS011;59738;48.324;14.230;2023-05-07T02:38:14;4.22;;;2.25;;
71867;SDS011;59738;48.324;14.230;2023-05-07T02:40:43;3.40;;;2.20;;
71867;SDS011;59738;48.324;14.230;2023-05-07T02:43:10;2.53;;;2.03;;
71867;SDS011;59738;48.324;14.230;2023-05-07T02:45:40;2.13;;;1.92;;
71867;SDS011;59738;48.324;14.230;2023-05-07T02:48:10;3.30;;;1.93;;
71867;SDS011;59738;48.324;14.230;2023-05-07T02:50:37;2.63;;;2.28;;
71867;SDS011;59738;48.324;14.230;2023-05-07T02:53:05;3.80;;;2.30;;
71867;SDS011;59738;48.324;14.230;2023-05-07T02:55:32;2.30;;;2.10;;
71867;SDS011;59738;48.324;14.230;2023-05-07T02:57:59;2.45;;;2.20;;
71867;SDS011;59738;48.324;14.230;2023-05-07T03:00:27;2.40;;;1.97;;
71867;SDS011;59738;48.324;14.230;2023-05-07T03:03:21;3.10;;;2.15;;
71867;SDS011;59738;48.324;14.230;2023-05-07T03:05:48;2.42;;;2.22;;
71867;SDS011;59738;48.324;14.230;2023-05-07T03:08:16;4.20;;;2.17;;
71867;SDS011;59738;48.324;14.230;2023-05-07T03:10:43;2.83;;;2.40;;
71867;SDS011;59738;48.324;14.230;2023-05-07T03:13:10;3.93;;;2.77;;
71867;SDS011;59738;48.324;14.230;2023-05-07T03:15:38;4.10;;;2.30;;
71867;SDS011;59738;48.324;14.230;2023-05-07T03:18:05;2.78;;;2.50;;
71867;SDS011;59738;48.324;14.230;2023-05-07T03:20:34;2.58;;;2.30;;
71867;SDS011;59738;48.324;14.230;2023-05-07T03:23:02;4.28;;;2.17;;
71867;SDS011;59738;48.324;14.230;2023-05-07T03:25:29;4.60;;;2.17;;
71867;SDS011;59738;48.324;14.230;2023-05-07T03:27:56;4.82;;;2.20;;
71867;SDS011;59738;48.324;14.230;2023-05-07T03:30:29;2.20;;;2.00;;
71867;SDS011;59738;48.324;14.230;2023-05-07T03:32:56;2.85;;;2.20;;
71867;SDS011;59738;48.324;14.230;2023-05-07T03:35:24;2.78;;;2.58;;
71867;SDS011;59738;48.324;14.230;2023-05-07T03:37:52;6.13;;;2.30;;
71867;SDS011;59738;48.324;14.230;2023-05-07T03:40:21;5.85;;;2.80;;
71867;SDS011;59738;48.324;14.230;2023-05-07T03:42:52;5.13;;;2.63;;
71867;SDS011;59738;48.324;14.230;2023-05-07T03:45:23;2.97;;;2.58;;
71867;SDS011;59738;48.324;14.230;2023-05-07T03:47:59;2.83;;;2.53;;
71867;SDS011;59738;48.324;14.230;2023-05-07T03:50:26;3.47;;;2.43;;
71867;SDS011;59738;48.324;14.230;2023-05-07T03:52:55;3.40;;;2.40;;
71867;SDS011;59738;48.324;14.230;2023-05-07T03:55:23;2.58;;;2.38;;
71867;SDS011;59738;48.324;14.230;2023-05-07T03:57:56;2.97;;;2.38;;
71867;SDS011;59738;48.324;14.230;2023-05-07T04:00:25;4.57;;;2.70;;
71867;SDS011;59738;48.324;14.230;2023-05-07T04:02:52;2.70;;;2.50;;
71867;SDS011;59738;48.324;14.230;2023-05-07T04:05:25;5.25;;;3.75;;
71867;SDS011;59738;48.324;14.230;2023-05-07T04:07:59;4.68;;;2.80;;
71867;SDS011;59738;48.324;14.230;2023-05-07T04:10:33;2.40;;;2.20;;
71867;SDS011;59738;48.324;14.230;2023-05-07T04:13:04;3.58;;;2.55;;
71867;SDS011;59738;48.324;14.230;2023-05-07T04:15:32;2.87;;;2.27;;
71867;SDS011;59738;48.324;14.230;2023-05-07T04:17:59;2.95;;;2.40;;
71867;SDS011;59738;48.324;14.230;2023-05-07T04:20:27;4.25;;;2.38;;
71867;SDS011;59738;48.324;14.230;2023-05-07T04:23:01;8.90;;;2.22;;
71867;SDS011;59738;48.324;14.230;2023-05-07T04:25:29;3.42;;;2.95;;
71867;SDS011;59738;48.324;14.230;2023-05-07T04:28:04;5.27;;;2.60;;
71867;SDS011;59738;48.324;14.230;2023-05-07T04:30:32;5.90;;;2.72;;
71867;SDS011;59738;48.324;14.230;2023-05-07T04:32:59;4.35;;;3.33;;
71867;SDS011;59738;48.324;14.230;2023-05-07T04:35:28;3.33;;;2.53;;
71867;SDS011;59738;48.324;14.230;2023-05-07T04:37:56;6.00;;;2.80;;
71867;SDS011;59738;48.324;14.230;2023-05-07T04:40:25;7.00;;;3.53;;
71867;SDS011;59738;48.324;14.230;2023-05-07T04:42:52;9.25;;;3.70;;
71867;SDS011;59738;48.324;14.230;2023-05-07T04:45:20;6.60;;;3.55;;
71867;SDS011;59738;48.324;14.230;2023-05-07T04:47:48;7.47;;;4.10;;
71867;SDS011;59738;48.324;14.230;2023-05-07T04:50:15;7.28;;;4.50;;
71867;SDS011;59738;48.324;14.230;2023-05-07T04:52:46;6.50;;;4.33;;
71867;SDS011;59738;48.324;14.230;2023-05-07T04:55:14;7.15;;;4.63;;
71867;SDS011;59738;48.324;14.230;2023-05-07T04:57:43;6.85;;;4.45;;
71867;SDS011;59738;48.324;14.230;2023-05-07T05:00:13;6.50;;;4.68;;
71867;SDS011;59738;48.324;14.230;2023-05-07T05:02:43;8.25;;;4.65;;
71867;SDS011;59738;48.324;14.230;2023-05-07T05:05:12;10.60;;;5.07;;
71867;SDS011;59738;48.324;14.230;2023-05-07T05:07:40;7.53;;;4.47;;
71867;SDS011;59738;48.324;14.230;2023-05-07T05:10:08;8.85;;;5.07;;
71867;SDS011;59738;48.324;14.230;2023-05-07T05:12:38;6.82;;;4.45;;
71867;SDS011;59738;48.324;14.230;2023-05-07T05:15:07;7.45;;;4.60;;
71867;SDS011;59738;48.324;14.230;2023-05-07T05:17:36;6.23;;;4.00;;
71867;SDS011;59738;48.324;14.230;2023-05-07T05:20:05;5.28;;;3.97;;
71867;SDS011;59738;48.324;14.230;2023-05-07T05:22:33;7.82;;;4.63;;
71867;SDS011;59738;48.324;14.230;2023-05-07T05:25:01;7.50;;;4.53;;
71867;SDS011;59738;48.324;14.230;2023-05-07T05:27:28;10.05;;;4.30;;
71867;SDS011;59738;48.324;14.230;2023-05-07T05:29:56;6.53;;;4.00;;
71867;SDS011;59738;48.324;14.230;2023-05-07T05:32:24;6.55;;;4.25;;
71867;SDS011;59738;48.324;14.230;2023-05-07T05:34:55;7.82;;;4.50;;
71867;SDS011;59738;48.324;14.230;2023-05-07T05:37:22;7.07;;;4.15;;
71867;SDS011;59738;48.324;14.230;2023-05-07T05:39:50;7.07;;;3.85;;
71867;SDS011;59738;48.324;14.230;2023-05-07T05:42:18;6.47;;;3.97;;
71867;SDS011;59738;48.324;14.230;2023-05-07T05:44:46;8.77;;;4.70;;
71867;SDS011;59738;48.324;14.230;2023-05-07T05:47:13;5.47;;;3.92;;
71867;SDS011;59738;48.324;14.230;2023-05-07T05:49:42;5.28;;;3.30;;
71867;SDS011;59738;48.324;14.230;2023-05-07T05:52:13;4.30;;;3.45;;
71867;SDS011;59738;48.324;14.230;2023-05-07T05:54:42;4.27;;;3.57;;
71867;SDS011;59738;48.324;14.230;2023-05-07T05:57:11;4.35;;;3.25;;
71867;SDS011;59738;48.324;14.230;2023-05-07T05:59:38;7.18;;;3.40;;
71867;SDS011;59738;48.324;14.230;2023-05-07T06:02:06;7.25;;;4.50;;
71867;SDS011;59738;48.324;14.230;2023-05-07T06:04:33;5.90;;;4.47;;
71867;SDS011;59738;48.324;14.230;2023-05-07T06:07:02;7.77;;;4.13;;
71867;SDS011;59738;48.324;14.230;2023-05-07T06:09:29;6.10;;;4.28;;
71867;SDS011;59738;48.324;14.230;2023-05-07T06:11:56;5.60;;;4.22;;
71867;SDS011;59738;48.324;14.230;2023-05-07T06:14:24;7.28;;;5.13;;
71867;SDS011;59738;48.324;14.230;2023-05-07T06:16:51;8.60;;;4.70;;
71867;SDS011;59738;48.324;14.230;2023-05-07T06:19:18;6.43;;;3.97;;
71867;SDS011;59738;48.324;14.230;2023-05-07T06:21:49;7.47;;;3.88;;
71867;SDS011;59738;48.324;14.230;2023-05-07T06:24:17;5.68;;;3.70;;
71867;SDS011;59738;48.324;14.230;2023-05-07T06:26:45;4.28;;;3.10;;
71867;SDS011;59738;48.324;14.230;2023-05-07T06:29:12;4.05;;;2.55;;
71867;SDS011;59738;48.324;14.230;2023-05-07T06:31:41;6.17;;;3.37;;
71867;SDS011;59738;48.324;14.230;2023-05-07T06:34:09;7.07;;;3.65;;
71867;SDS011;59738;48.324;14.230;2023-05-07T06:36:40;5.65;;;3.83;;
71867;SDS011;59738;48.324;14.230;2023-05-07T06:39:27;6.40;;;3.40;;
71867;SDS011;59738;48.324;14.230;2023-05-07T06:41:55;4.40;;;2.95;;
71867;SDS011;59738;48.324;14.230;2023-05-07T06:44:30;6.07;;;3.97;;
71867;SDS011;59738;48.324;14.230;2023-05-07T06:47:09;6.40;;;3.75;;
71867;SDS011;59738;48.324;14.230;2023-05-07T06:49:40;7.30;;;4.22;;
71867;SDS011;59738;48.324;14.230;2023-05-07T06:52:07;11.48;;;3.95;;
71867;SDS011;59738;48.324;14.230;2023-05-07T06:54:36;7.00;;;4.47;;
71867;SDS011;59738;48.324;14.230;2023-05-07T06:57:03;6.00;;;3.70;;
71867;SDS011;59738;48.324;14.230;2023-05-07T06:59:31;5.55;;;4.07;;
71867;SDS011;59738;48.324;14.230;2023-05-07T07:01:59;5.70;;;3.85;;
71867;SDS011;59738;48.324;14.230;2023-05-07T07:04:26;6.35;;;4.10;;
71867;SDS011;59738;48.324;14.230;2023-05-07T07:07:00;6.25;;;4.22;;
71867;SDS011;59738;48.324;14.230;2023-05-07T07:09:29;8.23;;;4.23;;
71867;SDS011;59738;48.324;14.230;2023-05-07T07:11:58;4.50;;;3.75;;
71867;SDS011;59738;48.324;14.230;2023-05-07T07:14:25;5.85;;;4.07;;
71867;SDS011;59738;48.324;14.230;2023-05-07T07:16:53;7.32;;;4.60;;
71867;SDS011;59738;48.324;14.230;2023-05-07T07:19:22;5.00;;;3.58;;
71867;SDS011;59738;48.324;14.230;2023-05-07T07:21:52;6.40;;;4.70;;
71867;SDS011;59738;48.324;14.230;2023-05-07T07:24:19;7.80;;;4.93;;
71867;SDS011;59738;48.324;14.230;2023-05-07T07:26:50;7.22;;;4.00;;
71867;SDS011;59738;48.324;14.230;2023-05-07T07:29:19;6.22;;;4.20;;
71867;SDS011;59738;48.324;14.230;2023-05-07T07:31:47;6.85;;;4.18;;
71867;SDS011;59738;48.324;14.230;2023-05-07T07:34:15;8.53;;;4.17;;
71867;SDS011;59738;48.324;14.230;2023-05-07T07:36:42;7.05;;;4.20;;
71867;SDS011;59738;48.324;14.230;2023-05-07T07:39:09;8.07;;;4.97;;
71867;SDS011;59738;48.324;14.230;2023-05-07T07:41:37;8.93;;;5.22;;
71867;SDS011;59738;48.324;14.230;2023-05-07T07:44:04;6.55;;;4.20;;
71867;SDS011;59738;48.324;14.230;2023-05-07T07:46:36;8.33;;;4.17;;
71867;SDS011;59738;48.324;14.230;2023-05-07T07:49:03;7.28;;;4.13;;
71867;SDS011;59738;48.324;14.230;2023-05-07T07:51:31;7.10;;;4.43;;
71867;SDS011;59738;48.324;14.230;2023-05-07T07:54:00;5.45;;;4.55;;
71867;SDS011;59738;48.324;14.230;2023-05-07T07:56:30;8.75;;;4.85;;
71867;SDS011;59738;48.324;14.230;2023-05-07T07:58:57;6.30;;;4.20;;
71867;SDS011;59738;48.324;14.230;2023-05-07T08:01:24;7.45;;;5.03;;
71867;SDS011;59738;48.324;14.230;2023-05-07T08:03:54;7.80;;;4.95;;
71867;SDS011;59738;48.324;14.230;2023-05-07T08:06:21;6.25;;;4.13;;
71867;SDS011;59738;48.324;14.230;2023-05-07T08:08:48;6.28;;;4.50;;
71867;SDS011;59738;48.324;14.230;2023-05-07T08:11:16;6.93;;;4.60;;
71867;SDS011;59738;48.324;14.230;2023-05-07T08:13:43;5.63;;;4.13;;
71867;SDS011;59738;48.324;14.230;2023-05-07T08:16:11;6.00;;;4.13;;
71867;SDS011;59738;48.324;14.230;2023-05-07T08:18:38;6.63;;;4.40;;
71867;SDS011;59738;48.324;14.230;2023-05-07T08:21:08;5.38;;;4.00;;
71867;SDS011;59738;48.324;14.230;2023-05-07T08:23:35;6.03;;;4.03;;
71867;SDS011;59738;48.324;14.230;2023-05-07T08:26:03;7.05;;;4.22;;
71867;SDS011;59738;48.324;14.230;2023-05-07T08:28:31;6.88;;;4.53;;
71867;SDS011;59738;48.324;14.230;2023-05-07T08:30:58;7.30;;;4.43;;
71867;SDS011;59738;48.324;14.230;2023-05-07T08:33:28;6.70;;;3.97;;
71867;SDS011;59738;48.324;14.230;2023-05-07T08:35:56;4.27;;;3.30;;
71867;SDS011;59738;48.324;14.230;2023-05-07T08:38:25;4.20;;;3.47;;
71867;SDS011;59738;48.324;14.230;2023-05-07T08:40:53;5.88;;;4.10;;
71867;SDS011;59738;48.324;14.230;2023-05-07T08:43:20;5.60;;;3.90;;
71867;SDS011;59738;48.324;14.230;2023-05-07T08:45:48;5.93;;;3.83;;
71867;SDS011;59738;48.324;14.230;2023-05-07T08:48:18;4.60;;;3.70;;
71867;SDS011;59738;48.324;14.230;2023-05-07T08:50:52;5.90;;;3.90;;
71867;SDS011;59738;48.324;14.230;2023-05-07T08:53:20;5.00;;;3.38;;
71867;SDS011;59738;48.324;14.230;2023-05-07T08:55:50;4.20;;;3.47;;
71867;SDS011;59738;48.324;14.230;2023-05-07T08:58:17;7.60;;;3.85;;
71867;SDS011;59738;48.324;14.230;2023-05-07T09:00:45;4.60;;;3.40;;
71867;SDS011;59738;48.324;14.230;2023-05-07T09:03:13;4.85;;;3.42;;
71867;SDS011;59738;48.324;14.230;2023-05-07T09:05:44;5.38;;;3.38;;
71867;SDS011;59738;48.324;14.230;2023-05-07T09:08:14;4.65;;;3.20;;
71867;SDS011;59738;48.324;14.230;2023-05-07T09:10:42;6.38;;;3.97;;
71867;SDS011;59738;48.324;14.230;2023-05-07T09:13:10;5.20;;;3.50;;
71867;SDS011;59738;48.324;14.230;2023-05-07T09:15:39;6.20;;;3.85;;
71867;SDS011;59738;48.324;14.230;2023-05-07T09:18:06;9.52;;;5.57;;
71867;SDS011;59738;48.324;14.230;2023-05-07T09:20:35;9.60;;;4.88;;
71867;SDS011;59738;48.324;14.230;2023-05-07T09:23:03;8.80;;;4.90;;
71867;SDS011;59738;48.324;14.230;2023-05-07T09:25:30;6.80;;;4.07;;
71867;SDS011;59738;48.324;14.230;2023-05-07T09:28:02;8.02;;;4.60;;
71867;SDS011;59738;48.324;14.230;2023-05-07T09:30:31;6.47;;;4.75;;
71867;SDS011;59738;48.324;14.230;2023-05-07T09:33:02;9.98;;;5.38;;
71867;SDS011;59738;48.324;14.230;2023-05-07T09:35:30;11.57;;;5.18;;
71867;SDS011;59738;48.324;14.230;2023-05-07T09:38:02;8.37;;;5.20;;
71867;SDS011;59738;48.324;14.230;2023-05-07T09:40:31;8.43;;;4.85;;
71867;SDS011;59738;48.324;14.230;2023-05-07T09:43:09;7.97;;;4.32;;
71867;SDS011;59738;48.324;14.230;2023-05-07T09:45:41;5.75;;;4.50;;
71867;SDS011;59738;48.324;14.230;2023-05-07T09:48:08;6.63;;;4.53;;
71867;SDS011;59738;48.324;14.230;2023-05-07T09:50:40;9.40;;;4.40;;
71867;SDS011;59738;48.324;14.230;2023-05-07T09:53:10;8.25;;;4.10;;
71867;SDS011;59738;48.324;14.230;2023-05-07T09:55:38;6.85;;;4.80;;
71867;SDS011;59738;48.324;14.230;2023-05-07T09:58:05;7.40;;;4.75;;
71867;SDS011;59738;48.324;14.230;2023-05-07T10:00:33;7.13;;;4.72;;
71867;SDS011;59738;48.324;14.230;2023-05-07T10:03:09;7.93;;;5.13;;
71867;SDS011;59738;48.324;14.230;2023-05-07T10:05:51;6.80;;;4.82;;
71867;SDS011;59738;48.324;14.230;2023-05-07T10:08:19;8.20;;;4.10;;
71867;SDS011;59738;48.324;14.230;2023-05-07T10:10:49;5.65;;;3.90;;
71867;SDS011;59738;48.324;14.230;2023-05-07T10:13:21;5.13;;;4.00;;
71867;SDS011;59738;48.324;14.230;2023-05-07T10:15:51;4.97;;;3.40;;
71867;SDS011;59738;48.324;14.230;2023-05-07T10:18:21;5.85;;;4.00;;
71867;SDS011;59738;48.324;14.230;2023-05-07T10:20:51;6.68;;;5.57;;
71867;SDS011;59738;48.324;14.230;2023-05-07T10:23:22;7.30;;;4.93;;
71867;SDS011;59738;48.324;14.230;2023-05-07T10:25:52;8.90;;;5.38;;
71867;SDS011;59738;48.324;14.230;2023-05-07T10:28:22;5.97;;;4.10;;
71867;SDS011;59738;48.324;14.230;2023-05-07T10:30:55;8.15;;;4.78;;
71867;SDS011;59738;48.324;14.230;2023-05-07T10:33:30;7.03;;;4.38;;
71867;SDS011;59738;48.324;14.230;2023-05-07T10:35:59;7.97;;;5.00;;
71867;SDS011;59738;48.324;14.230;2023-05-07T10:38:28;8.13;;;4.70;;
71867;SDS011;59738;48.324;14.230;2023-05-07T10:40:57;5.60;;;4.30;;
71867;SDS011;59738;48.324;14.230;2023-05-07T10:43:25;6.03;;;4.32;;
71867;SDS011;59738;48.324;14.230;2023-05-07T10:46:09;8.27;;;5.05;;
71867;SDS011;59738;48.324;14.230;2023-05-07T10:51:39;7.93;;;5.22;;
71867;SDS011;59738;48.324;14.230;2023-05-07T10:54:22;8.03;;;5.23;;
71867;SDS011;59738;48.324;14.230;2023-05-07T10:59:44;7.47;;;4.22;;
71867;SDS011;59738;48.324;14.230;2023-05-07T11:02:36;5.45;;;3.90;;
71867;SDS011;59738;48.324;14.230;2023-05-07T11:05:24;7.13;;;3.90;;
71867;SDS011;59738;48.324;14.230;2023-05-07T11:08:12;5.90;;;3.53;;
71867;SDS011;59738;48.324;14.230;2023-05-07T11:10:52;5.68;;;3.40;;
71867;SDS011;59738;48.324;14.230;2023-05-07T11:13:43;4.80;;;3.58;;
71867;SDS011;59738;48.324;14.230;2023-05-07T11:16:18;5.28;;;3.58;;
71867;SDS011;59738;48.324;14.230;2023-05-07T11:18:47;3.85;;;3.15;;
71867;SDS011;59738;48.324;14.230;2023-05-07T11:24:33;4.70;;;3.65;;
71867;SDS011;59738;48.324;14.230;2023-05-07T11:27:04;5.30;;;3.60;;
71867;SDS011;59738;48.324;14.230;2023-05-07T11:29:32;3.95;;;3.35;;
71867;SDS011;59738;48.324;14.230;2023-05-07T11:32:05;6.15;;;3.42;;
71867;SDS011;59738;48.324;14.230;2023-05-07T11:34:39;4.33;;;3.10;;
71867;SDS011;59738;48.324;14.230;2023-05-07T11:37:06;4.57;;;3.13;;
71867;SDS011;59738;48.324;14.230;2023-05-07T11:39:49;5.20;;;3.63;;
71867;SDS011;59738;48.324;14.230;2023-05-07T11:42:27;7.03;;;4.15;;
71867;SDS011;59738;48.324;14.230;2023-05-07T11:44:54;6.22;;;4.35;;
71867;SDS011;59738;48.324;14.230;2023-05-07T11:47:21;7.53;;;3.97;;
71867;SDS011;59738;48.324;14.230;2023-05-07T11:49:49;5.38;;;3.47;;
71867;SDS011;59738;48.324;14.230;2023-05-07T11:52:17;5.50;;;4.18;;
71867;SDS011;59738;48.324;14.230;2023-05-07T11:54:49;6.05;;;3.97;;
71867;SDS011;59738;48.324;14.230;2023-05-07T11:57:16;5.43;;;3.63;;
71867;SDS011;59738;48.324;14.230;2023-05-07T11:59:44;6.50;;;4.70;;
71867;SDS011;59738;48.324;14.230;2023-05-07T12:02:14;6.07;;;4.38;;
71867;SDS011;59738;48.324;14.230;2023-05-07T12:04:42;6.43;;;3.97;;
71867;SDS011;59738;48.324;14.230;2023-05-07T12:07:11;10.57;;;4.20;;
71867;SDS011;59738;48.324;14.230;2023-05-07T12:09:38;6.05;;;3.88;;
71867;SDS011;59738;48.324;14.230;2023-05-07T12:12:07;9.93;;;4.20;;
71867;SDS011;59738;48.324;14.230;2023-05-07T12:14:37;5.15;;;3.55;;
71867;SDS011;59738;48.324;14.230;2023-05-07T12:17:04;6.60;;;4.43;;
71867;SDS011;59738;48.324;14.230;2023-05-07T12:19:31;5.80;;;4.25;;
71867;SDS011;59738;48.324;14.230;2023-05-07T12:21:58;6.85;;;3.90;;
71867;SDS011;59738;48.324;14.230;2023-05-07T12:24:25;5.20;;;4.10;;
71867;SDS011;59738;48.324;14.230;2023-05-07T12:26:53;5.90;;;4.18;;
71867;SDS011;59738;48.324;14.230;2023-05-07T12:29:22;6.60;;;4.40;;
71867;SDS011;59738;48.324;14.230;2023-05-07T12:31:49;5.45;;;4.00;;
71867;SDS011;59738;48.324;14.230;2023-05-07T12:34:16;5.70;;;3.53;;
71867;SDS011;59738;48.324;14.230;2023-05-07T12:36:44;7.83;;;4.60;;
71867;SDS011;59738;48.324;14.230;2023-05-07T12:39:11;5.45;;;3.88;;
71867;SDS011;59738;48.324;14.230;2023-05-07T12:41:53;4.75;;;3.45;;
71867;SDS011;59738;48.324;14.230;2023-05-07T12:44:23;5.43;;;4.00;;
71867;SDS011;59738;48.324;14.230;2023-05-07T12:46:50;5.28;;;3.92;;
71867;SDS011;59738;48.324;14.230;2023-05-07T12:49:18;7.07;;;4.47;;
71867;SDS011;59738;48.324;14.230;2023-05-07T12:51:46;5.38;;;3.97;;
71867;SDS011;59738;48.324;14.230;2023-05-07T12:54:13;5.82;;;4.30;;
71867;SDS011;59738;48.324;14.230;2023-05-07T12:56:41;5.80;;;4.30;;
71867;SDS011;59738;48.324;14.230;2023-05-07T12:59:08;6.97;;;5.05;;
71867;SDS011;59738;48.324;14.230;2023-05-07T13:01:36;6.97;;;4.67;;
71867;SDS011;59738;48.324;14.230;2023-05-07T13:04:04;5.60;;;4.40;;
71867;SDS011;59738;48.324;14.230;2023-05-07T13:06:31;6.68;;;4.60;;
71867;SDS011;59738;48.324;14.230;2023-05-07T13:08:58;8.40;;;4.22;;
71867;SDS011;59738;48.324;14.230;2023-05-07T13:11:25;6.30;;;4.63;;
71867;SDS011;59738;48.324;14.230;2023-05-07T13:13:52;6.57;;;4.00;;
71867;SDS011;59738;48.324;14.230;2023-05-07T13:16:20;5.72;;;3.80;;
71867;SDS011;59738;48.324;14.230;2023-05-07T13:18:48;6.65;;;4.20;;
71867;SDS011;59738;48.324;14.230;2023-05-07T13:21:15;4.80;;;3.53;;
71867;SDS011;59738;48.324;14.230;2023-05-07T13:23:42;5.15;;;3.75;;
71867;SDS011;59738;48.324;14.230;2023-05-07T13:26:10;5.33;;;3.30;;
71867;SDS011;59738;48.324;14.230;2023-05-07T13:28:37;4.32;;;3.50;;
71867;SDS011;59738;48.324;14.230;2023-05-07T13:31:04;4.28;;;3.42;;
71867;SDS011;59738;48.324;14.230;2023-05-07T13:33:31;3.75;;;3.33;;
71867;SDS011;59738;48.324;14.230;2023-05-07T13:35:59;5.18;;;3.88;;
71867;SDS011;59738;48.324;14.230;2023-05-07T13:38:27;5.70;;;3.60;;
71867;SDS011;59738;48.324;14.230;2023-05-07T13:40:55;4.45;;;3.20;;
71867;SDS011;59738;48.324;14.230;2023-05-07T13:43:22;3.83;;;3.10;;
71867;SDS011;59738;48.324;14.230;2023-05-07T13:45:49;5.70;;;3.55;;
71867;SDS011;59738;48.324;14.230;2023-05-07T13:48:16;6.88;;;3.92;;
71867;SDS011;59738;48.324;14.230;2023-05-07T13:50:43;5.20;;;3.80;;
71867;SDS011;59738;48.324;14.230;2023-05-07T13:53:12;7.68;;;3.40;;
71867;SDS011;59738;48.324;14.230;2023-05-07T13:55:41;5.50;;;3.70;;
71867;SDS011;59738;48.324;14.230;2023-05-07T13:58:08;3.88;;;3.17;;
71867;SDS011;59738;48.324;14.230;2023-05-07T14:00:35;7.40;;;3.67;;
71867;SDS011;59738;48.324;14.230;2023-05-07T14:03:03;5.53;;;3.73;;
71867;SDS011;59738;48.324;14.230;2023-05-07T14:05:31;4.25;;;3.22;;
71867;SDS011;59738;48.324;14.230;2023-05-07T14:07:58;4.28;;;3.03;;
71867;SDS011;59738;48.324;14.230;2023-05-07T14:10:26;4.38;;;2.50;;
71867;SDS011;59738;48.324;14.230;2023-05-07T14:12:53;3.75;;;3.30;;
71867;SDS011;59738;48.324;14.230;2023-05-07T14:15:21;7.10;;;3.10;;
71867;SDS011;59738;48.324;14.230;2023-05-07T14:17:48;7.43;;;3.45;;
71867;SDS011;59738;48.324;14.230;2023-05-07T14:20:15;3.53;;;2.90;;
71867;SDS011;59738;48.324;14.230;2023-05-07T14:22:42;3.78;;;2.90;;
71867;SDS011;59738;48.324;14.230;2023-05-07T14:25:09;3.10;;;2.40;;
71867;SDS011;59738;48.324;14.230;2023-05-07T14:27:38;3.50;;;2.53;;
71867;SDS011;59738;48.324;14.230;2023-05-07T14:30:05;3.85;;;2.78;;
71867;SDS011;59738;48.324;14.230;2023-05-07T14:32:33;3.63;;;2.90;;
71867;SDS011;59738;48.324;14.230;2023-05-07T14:35:00;3.85;;;2.85;;
71867;SDS011;59738;48.324;14.230;2023-05-07T14:37:27;6.00;;;3.30;;
71867;SDS011;59738;48.324;14.230;2023-05-07T14:39:54;5.37;;;3.10;;
71867;SDS011;59738;48.324;14.230;2023-05-07T14:42:21;4.88;;;3.63;;
71867;SDS011;59738;48.324;14.230;2023-05-07T14:44:50;4.60;;;3.58;;
71867;SDS011;59738;48.324;14.230;2023-05-07T14:47:18;5.03;;;3.20;;
71867;SDS011;59738;48.324;14.230;2023-05-07T14:49:45;5.18;;;3.05;;
71867;SDS011;59738;48.324;14.230;2023-05-07T14:52:12;3.73;;;3.03;;